Latest Weather Observations for Laverton

IDW60801

Issued at 11:03 pm WST Thursday 19 January 2017 (issued every 30 minutes, with the page automatically refreshed every 10 minutes)

About weather observations | Map of weather stations | Latest weather observations for WA | Other Formats
Station Details ID: 012305 Name: LAVERTON AERO Lat: -28.61 Lon: 122.42 Height: 464.3 m
Data from the previous 72 hours. | See also: Recent months at Laverton
Date/Time
WST
Temp
°C
App
Temp
°C
Dew
Point
°C
Rel
Hum
%
Delta-T
°C
Wind Press
QNH
hPa
Press
MSL
hPa
Rain since
9am
mm
Dir  Spd
km/h
Gust
km/h
Spd
kts
Gust
kts
19/11:00pm 29.1 25.6 12.1 35 10.1 SSE 22 28 12 15 1006.8 1003.5 0.0
19/10:30pm 29.9 25.7 12.3 33 10.5 S 26 35 14 19 1006.6 1003.2 0.0
19/10:00pm 30.7 26.2 12.6 33 10.9 S 28 43 15 23 1006.4 1003.0 0.0
19/09:30pm 31.4 27.6 13.6 33 10.9 S 26 37 14 20 1006.0 1002.6 0.0
19/09:00pm 32.0 30.0 15.5 37 10.5 S 20 32 11 17 1005.7 1002.3 0.0
19/08:30pm 32.6 30.1 15.1 34 11.0 S 22 30 12 16 1005.3 1001.9 0.0
19/08:00pm 33.3 30.5 15.3 34 11.4 SSE 24 32 13 17 1004.8 1001.5 0.0
19/07:30pm 33.8 33.0 16.2 35 11.3 SSE 15 17 8 9 1004.4 1001.0 0.0
19/07:00pm 34.3 33.9 16.2 34 11.7 SSE 13 20 7 11 1004.2 1000.8 0.0
19/06:30pm 34.6 33.4 16.0 33 11.9 SSE 17 20 9 11 1003.8 1000.4 0.0
19/06:00pm 35.0 33.1 15.8 31 12.3 SSE 20 28 11 15 1003.4 1000.0 0.0
19/05:30pm 35.4 33.7 16.2 32 12.4 S 20 28 11 15 1003.2 999.8 0.0
19/05:00pm 35.2 33.0 16.0 31 12.4 SSE 22 32 12 17 1003.2 999.8 0.0
19/04:30pm 35.5 33.8 16.3 32 12.4 SSW 20 30 11 16 1003.1 999.7 0.0
19/04:00pm 36.1 34.4 16.3 31 12.9 SSW 20 28 11 15 1003.3 999.9 0.0
19/03:30pm 36.2 34.6 16.4 31 12.8 SSW 20 28 11 15 1003.5 1000.1 0.0
19/03:00pm 35.1 34.6 16.9 34 11.9 SW 15 26 8 14 1003.8 1000.4 0.0
19/02:30pm 34.6 33.2 16.9 35 11.5 SSW 20 32 11 17 1004.2 1000.8 0.0
19/02:00pm 34.4 32.3 17.2 36 11.2 S 24 35 13 19 1004.5 1001.1 0.0
19/01:30pm 33.6 32.5 17.3 37 10.6 SSW 19 28 10 15 1004.9 1001.6 0.0
19/01:00pm 33.7 31.9 17.8 38 10.5 SW 24 32 13 17 1005.5 1002.1 0.0
19/12:30pm 32.1 31.7 19.0 45 8.7 SW 19 28 10 15 1005.9 1002.5 0.0
19/12:00pm 30.3 29.9 19.3 51 7.3 SW 20 28 11 15 1006.3 1002.9 0.0
19/11:30am 29.6 30.5 19.3 54 6.8 WSW 13 20 7 11 1006.7 1003.4 0.0
19/11:00am 28.2 29.2 18.6 56 6.3 SW 11 15 6 8 1007.0 1003.7 0.0
19/10:30am 27.6 28.2 18.6 58 5.9 SW 13 22 7 12 1007.7 1004.3 0.0
19/10:00am 27.0 28.8 18.3 59 5.6 WNW 6 13 3 7 1008.0 1004.6 0.0
19/09:30am 26.2 27.6 18.6 63 4.9 N 9 15 5 8 1008.0 1004.6 0.0
19/09:00am 24.9 25.7 18.1 66 4.4 N 11 17 6 9 1008.1 1004.7 0.0
19/08:30am 23.9 25.0 18.1 70 3.7 NNE 9 17 5 9 1008.1 1004.7 0.0
19/08:00am 23.1 24.7 18.2 74 3.1 NNE 7 15 4 8 1008.6 1005.3 0.0
19/07:30am 22.1 23.5 17.9 77 2.7 NNE 7 13 4 7 1008.7 1005.4 0.0
19/07:00am 21.4 21.7 18.0 81 2.2 ENE 13 19 7 10 1008.4 1005.0 0.0
19/06:30am 19.8 19.3 17.9 89 1.2 ENE 17 24 9 13 1008.0 1004.6 0.0
19/06:00am 19.7 19.2 17.7 88 1.3 ENE 17 22 9 12 1008.0 1004.6 0.0
19/05:30am 19.3 19.3 18.1 93 0.8 E 15 17 8 9 1008.4 1005.0 0.0
19/05:00am 19.2 19.6 18.2 94 0.6 E 13 19 7 10 1007.9 1004.5 0.0
19/04:30am 19.2 20.3 18.0 93 0.8 ESE 9 13 5 7 1007.9 1004.5 0.0
19/04:00am 19.2 20.6 17.9 92 0.8 SSE 7 9 4 5 1007.9 1004.5 0.0
19/03:30am 19.3 20.2 17.6 90 1.1 SE 9 9 5 5 1007.8 1004.4 0.0
19/03:00am 19.4 20.6 17.4 88 1.2 E 7 9 4 5 1007.9 1004.5 0.0
19/02:30am 19.5 20.2 17.1 86 1.5 E 9 13 5 7 1008.0 1004.6 0.0
19/02:00am 19.5 19.5 17.1 86 1.5 ENE 13 17 7 9 1008.3 1004.9 0.0
19/01:30am 19.8 20.2 17.2 85 1.6 ENE 11 13 6 7 1008.7 1005.4 0.0
19/01:00am 19.9 20.2 17.1 84 1.7 ENE 11 15 6 8 1009.1 1005.8 0.0
19/12:30am 20.2 19.4 17.0 82 2.0 E 17 20 9 11 1009.2 1005.9 0.0
19/12:00am 20.3 19.4 16.9 81 2.1 E 17 24 9 13 1009.4 1006.1 0.0
 
Date/Time
WST
Temp
°C
App
Temp
°C
Dew
Point
°C
Rel
Hum
%
Delta-T
°C
Wind Press
QNH
hPa
Press
MSL
hPa
Rain since
9am
mm
Dir  Spd
km/h
Gust
km/h
Spd
kts
Gust
kts
18/11:30pm 20.4 19.5 16.8 80 2.2 ESE 17 22 9 12 1009.9 1006.5 0.0
18/11:00pm 20.7 19.4 16.7 78 2.5 ENE 19 24 10 13 1010.0 1006.6 0.0
18/10:30pm 21.3 19.9 17.1 77 2.6 E 20 26 11 14 1010.4 1007.0 0.0
18/10:00pm 21.7 20.3 16.9 74 3.0 E 20 26 11 14 1011.0 1007.7 0.0
18/09:30pm 21.9 19.7 16.8 73 3.2 ENE 24 30 13 16 1011.0 1007.7 0.0
18/09:00pm 22.6 21.3 17.3 72 3.3 E 20 24 11 13 1011.0 1007.7 0.0
18/08:30pm 22.9 21.5 17.1 70 3.6 E 20 28 11 15 1010.6 1007.3 0.0
18/08:00pm 23.5 21.5 17.3 68 3.9 E 24 32 13 17 1010.2 1006.8 0.0
18/07:30pm 24.3 23.2 17.3 65 4.4 E 19 22 10 12 1010.0 1006.6 0.0
18/07:00pm 25.0 23.4 17.5 63 4.8 E 22 28 12 15 1009.5 1006.2 0.0
18/06:30pm 25.7 24.1 17.4 60 5.3 ESE 22 28 12 15 1009.2 1005.9 0.0
18/06:00pm 26.4 25.2 17.5 58 5.7 E 20 26 11 14 1008.9 1005.6 0.0
18/05:30pm 26.5 24.8 17.3 57 5.9 ESE 22 28 12 15 1008.6 1005.3 0.0
18/05:00pm 26.7 25.5 17.5 57 5.9 ESE 20 28 11 15 1008.9 1005.6 0.0
18/04:30pm 26.4 25.8 17.5 58 5.7 ESE 17 24 9 13 1009.1 1005.8 0.0
18/04:00pm 26.5 25.3 17.6 58 5.7 ESE 20 28 11 15 1009.5 1006.2 0.0
18/03:30pm 25.8 24.5 17.2 59 5.5 ESE 20 28 11 15 1009.9 1006.5 0.0
18/03:00pm 25.9 25.1 17.0 58 5.6 ESE 17 26 9 14 1010.3 1006.9 0.0
18/02:30pm 24.8 24.3 16.8 61 5.0 SE 15 22 8 12 1010.6 1007.3 0.0
18/02:00pm 24.4 23.0 17.1 63 4.6 SE 20 28 11 15 1011.0 1007.7 0.0
18/01:30pm 23.0 21.6 16.5 67 4.0 ESE 19 24 10 13 1011.7 1008.4 0.0
18/01:00pm 22.7 21.7 16.5 68 3.9 SE 17 32 9 17 1012.0 1008.6 0.0
18/12:30pm 21.5 20.2 16.7 74 3.0 ESE 19 24 10 13 1012.3 1008.9 0.0
18/12:00pm 21.4 20.1 16.8 75 2.9 ESE 19 24 10 13 1012.7 1009.4 0.0
18/11:30am 19.9 18.2 16.2 79 2.3 ESE 20 28 11 15 1013.2 1009.9 0.0
18/11:00am 19.2 17.4 15.9 81 2.0 ESE 20 26 11 14 1013.5 1010.2 0.0
18/10:30am 18.1 15.7 15.4 84 1.6 SE 22 28 12 15 1013.9 1010.6 0.0
18/10:00am 18.3 16.0 15.7 85 1.6 ESE 22 32 12 17 1014.4 1011.0 0.0
18/09:30am 17.4 15.0 15.4 88 1.2 ESE 22 30 12 16 1014.7 1011.4 0.0
18/09:00am 16.9 15.1 15.9 94 0.6 ESE 20 24 11 13 1015.1 1011.8 0.8
18/08:30am 17.1 14.8 15.8 92 0.8 E 22 28 12 15 1015.3 1012.0 0.8
18/08:00am 16.4 14.0 15.3 93 0.7 ESE 22 28 12 15 1015.5 1012.2 0.8
18/07:30am 16.3 14.5 15.5 95 0.5 ESE 19 28 10 15 1015.4 1012.1 0.8
18/07:00am 16.0 13.2 15.4 96 0.4 ESE 24 28 13 15 1015.2 1011.9 0.8
18/06:30am 16.3 14.5 15.5 95 0.5 ESE 19 28 10 15 1015.0 1011.7 0.8
18/06:00am 16.1 14.4 15.8 98 0.2 ESE 19 24 10 13 1014.7 1011.4 0.8
18/05:30am 15.5 14.4 15.3 99 0.1 ESE 15 19 8 10 1014.6 1011.3 0.8
18/05:00am 15.4 13.5 15.2 99 0.1 ESE 19 26 10 14 1014.3 1010.9 0.8
18/04:30am 15.7 13.2 15.2 97 0.3 ESE 22 28 12 15 1013.9 1010.6 0.8
18/04:00am 15.8 12.8 14.7 93 0.6 ESE 24 32 13 17 1013.5 1010.2 0.8
18/03:30am 16.3 13.2 14.5 89 1.1 ESE 24 30 13 16 1013.3 1010.0 0.8
18/03:00am 16.3 13.7 14.8 91 0.9 ESE 22 30 12 16 1013.2 1009.9 0.8
18/02:30am 16.0 13.0 14.7 92 0.8 ESE 24 37 13 20 1013.3 1010.0 0.8
18/02:00am 16.1 13.4 14.6 91 0.9 SE 22 28 12 15 1013.3 1010.0 0.8
18/01:30am 16.3 13.3 14.7 90 0.9 ESE 24 35 13 19 1013.5 1010.2 0.8
18/01:00am 16.2 12.4 14.7 91 0.9 ESE 28 37 15 20 1013.5 1010.2 0.8
18/12:30am 16.5 12.2 14.5 88 1.2 ESE 30 43 16 23 1013.5 1010.2 0.8
18/12:00am 16.7 13.7 14.7 88 1.2 ESE 24 39 13 21 1013.7 1010.4 0.8
 
Date/Time
WST
Temp
°C
App
Temp
°C
Dew
Point
°C
Rel
Hum
%
Delta-T
°C
Wind Press
QNH
hPa
Press
MSL
hPa
Rain since
9am
mm
Dir  Spd
km/h
Gust
km/h
Spd
kts
Gust
kts
17/11:30pm 16.7 12.2 14.9 89 1.1 ESE 32 43 17 23 1014.3 1010.9 0.8
17/11:00pm 17.0 13.8 15.2 89 1.1 ESE 26 33 14 18 1014.6 1011.3 0.8
17/10:30pm 16.6 13.7 16.0 96 0.4 SE 26 35 14 19 1014.6 1011.3 0.8
17/10:00pm 17.3 15.0 15.6 90 1.0 ESE 22 32 12 17 1014.9 1011.6 0.8
17/09:30pm 17.4 13.5 15.4 88 1.2 ESE 30 39 16 21 1015.0 1011.7 0.8
17/09:00pm 17.6 14.0 15.2 86 1.4 ESE 28 39 15 21 1014.8 1011.5 0.8
17/08:30pm 17.6 14.7 15.2 86 1.4 SE 24 33 13 18 1014.7 1011.4 0.8
17/08:00pm 17.4 14.4 15.9 91 0.9 SE 26 33 14 18 1014.4 1011.0 0.8
17/07:30pm 17.6 14.2 15.9 90 1.0 SE 28 41 15 22 1014.3 1010.9 0.8
17/07:00pm 17.6 14.4 16.3 92 0.8 SE 28 37 15 20 1013.7 1010.4 0.8
17/06:30pm 17.5 15.5 17.3 99 0.1 SE 24 32 13 17 1013.4 1010.1 0.8
17/06:00pm 17.5 15.1 17.3 99 0.1 SE 26 32 14 17 1013.2 1009.9 0.8
17/05:30pm 17.6 15.6 17.4 99 0.1 SE 24 32 13 17 1013.1 1009.8 0.8
17/05:00pm 17.7 15.2 17.1 96 0.4 SE 26 37 14 20 1012.7 1009.4 0.4
17/04:30pm 18.4 14.1 16.0 86 1.5 SE 33 44 18 24 1012.2 1008.8 0.0
17/04:00pm 18.6 15.6 16.9 90 1.0 SE 28 39 15 21 1012.1 1008.7 0.0
17/03:30pm 18.0 14.8 16.3 90 1.0 SE 28 35 15 19 1012.2 1008.8 0.0
17/03:00pm 18.3 15.3 15.9 86 1.5 SE 26 35 14 19 1012.5 1009.1 0.0
17/02:30pm 18.0 15.4 16.0 88 1.2 SE 24 32 13 17 1012.5 1009.1 0.0
17/02:00pm 18.5 16.2 16.7 89 1.1 SSE 24 32 13 17 1012.6 1009.3 0.0
17/01:30pm 18.3 15.1 16.3 88 1.2 SE 28 35 15 19 1012.6 1009.3 0.0
17/01:00pm 17.6 16.0 17.4 99 0.1 SSE 22 30 12 16 1012.7 1009.4 0.0
17/12:30pm 17.5 14.6 16.0 91 0.9 SE 26 33 14 18 1012.9 1009.6 0.0
17/12:00pm 17.4 15.1 15.6 89 1.1 SE 22 32 12 17 1012.9 1009.6 0.0
17/11:30am 17.6 15.0 15.8 89 1.1 SSE 24 33 13 18 1012.9 1009.6 0.0
17/11:00am 17.6 15.2 16.3 92 0.8 SSE 24 32 13 17 1012.9 1009.6 0.0
17/10:30am 18.3 15.8 17.1 93 0.7 SE 26 33 14 18 1012.4 1009.0 0.0
17/10:00am 17.7 15.7 17.4 98 0.2 SE 24 32 13 17 1012.5 1009.1 0.0
17/09:30am 17.1 14.5 16.9 99 0.1 SE 26 33 14 18 1012.6 1009.3 0.0
17/09:00am 17.3 14.8 17.0 98 0.2 SE 26 35 14 19 1012.2 1008.8 98.8
17/08:30am 17.3 13.7 16.2 93 0.7 SE 30 41 16 22 1011.6 1008.3 98.8
17/08:00am 17.4 15.1 16.6 95 0.5 SE 24 33 13 18 1011.4 1008.1 98.8
17/07:30am 17.3 14.6 16.7 96 0.4 SSE 26 33 14 18 1011.0 1007.7 98.8
17/07:00am 17.0 15.5 16.7 98 0.2 SSE 20 30 11 16 1010.5 1007.1 98.8
17/06:30am 17.0 15.0 16.4 96 0.4 SE 22 32 12 17 1010.5 1007.1 98.8
17/06:00am 17.3 14.6 16.7 96 0.4 SE 26 32 14 17 1010.5 1007.1 98.8
17/05:30am 17.3 14.9 16.3 94 0.6 SE 24 35 13 19 1009.8 1006.4 98.8
17/05:00am 17.5 15.2 16.7 95 0.5 SSE 24 32 13 17 1009.0 1005.7 98.8
17/04:30am 18.1 15.9 17.8 98 0.2 SE 26 37 14 20 1008.1 1004.7 98.8
17/04:00am 18.8 16.5 18.5 98 0.2 SE 28 43 15 23 1008.3 1004.9 98.8
17/03:30am 19.8 18.0 19.6 99 0.1 SE 28 35 15 19 1008.1 1004.7 98.6
17/03:00am 20.5 19.4 20.3 99 0.1 SE 26 37 14 20 1008.0 1004.6 98.6
17/02:30am 22.0 21.7 21.8 99 0.1 SE 26 33 14 18 1006.8 1003.5 98.4
17/02:00am 22.9 23.4 22.7 99 0.1 SE 24 41 13 22 1006.9 1003.6 98.2
17/01:30am 23.8 25.7 23.8 100 0.0 SE 20 28 11 15 1006.9 1003.6 97.4
17/01:00am 23.9 27.2 23.9 100 0.0 SE 13 17 7 9 1007.2 1003.9 95.8
17/12:30am 23.7 27.7 23.7 100 0.0 SSE 9 13 5 7 1007.9 1004.5 93.4
17/12:00am 23.7 27.7 23.7 100 0.0 SSW 9 13 5 7 1007.9 1004.5 89.8
 
Date/Time
WST
Temp
°C
App
Temp
°C
Dew
Point
°C
Rel
Hum
%
Delta-T
°C
Wind Press
QNH
hPa
Press
MSL
hPa
Rain since
9am
mm
Dir  Spd
km/h
Gust
km/h
Spd
kts
Gust
kts
16/11:30pm 23.7 27.9 23.5 99 0.1 WNW 7 9 4 5 1007.7 1004.3 86.6

Other Formats:

Comma delimited format used in spreadsheet applications
http://www.bom.gov.au/fwo/IDW60801/IDW60801.94449.axf

JavaScript Object Notation format (JSON) in row-major order
http://www.bom.gov.au/fwo/IDW60801/IDW60801.94449.json